sensor_id;sensor_type;location;lat;lon;timestamp;P1;durP1;ratioP1;P2;durP2;ratioP2
56239;SDS011;42154;51.992;5.896;2023-07-08T00:00:22;4.13;;;1.60;;
56239;SDS011;42154;51.992;5.896;2023-07-08T00:02:50;2.60;;;1.60;;
56239;SDS011;42154;51.992;5.896;2023-07-08T00:05:17;1.88;;;1.20;;
56239;SDS011;42154;51.992;5.896;2023-07-08T00:07:45;2.38;;;1.50;;
56239;SDS011;42154;51.992;5.896;2023-07-08T00:10:20;2.67;;;1.75;;
56239;SDS011;42154;51.992;5.896;2023-07-08T00:12:48;3.63;;;1.95;;
56239;SDS011;42154;51.992;5.896;2023-07-08T00:15:16;2.17;;;1.40;;
56239;SDS011;42154;51.992;5.896;2023-07-08T00:17:42;2.67;;;1.70;;
56239;SDS011;42154;51.992;5.896;2023-07-08T00:20:10;4.22;;;1.55;;
56239;SDS011;42154;51.992;5.896;2023-07-08T00:22:54;3.88;;;2.03;;
56239;SDS011;42154;51.992;5.896;2023-07-08T00:25:20;3.00;;;1.95;;
56239;SDS011;42154;51.992;5.896;2023-07-08T00:27:46;2.30;;;1.73;;
56239;SDS011;42154;51.992;5.896;2023-07-08T00:30:22;2.33;;;1.73;;
56239;SDS011;42154;51.992;5.896;2023-07-08T00:32:49;4.00;;;1.70;;
56239;SDS011;42154;51.992;5.896;2023-07-08T00:35:32;2.85;;;1.77;;
56239;SDS011;42154;51.992;5.896;2023-07-08T00:40:59;4.18;;;1.63;;
56239;SDS011;42154;51.992;5.896;2023-07-08T00:48:58;2.33;;;1.80;;
56239;SDS011;42154;51.992;5.896;2023-07-08T00:51:29;3.50;;;1.42;;
56239;SDS011;42154;51.992;5.896;2023-07-08T00:53:54;3.10;;;1.48;;
56239;SDS011;42154;51.992;5.896;2023-07-08T00:56:28;3.53;;;1.77;;
56239;SDS011;42154;51.992;5.896;2023-07-08T00:59:02;2.03;;;1.48;;
56239;SDS011;42154;51.992;5.896;2023-07-08T01:01:32;1.58;;;1.48;;
56239;SDS011;42154;51.992;5.896;2023-07-08T01:04:13;3.25;;;1.52;;
56239;SDS011;42154;51.992;5.896;2023-07-08T01:06:46;2.90;;;1.60;;
56239;SDS011;42154;51.992;5.896;2023-07-08T01:09:18;4.95;;;1.58;;
56239;SDS011;42154;51.992;5.896;2023-07-08T01:11:44;2.40;;;1.80;;
56239;SDS011;42154;51.992;5.896;2023-07-08T01:14:11;3.55;;;1.92;;
56239;SDS011;42154;51.992;5.896;2023-07-08T01:16:41;1.80;;;1.50;;
56239;SDS011;42154;51.992;5.896;2023-07-08T01:19:09;2.67;;;1.52;;
56239;SDS011;42154;51.992;5.896;2023-07-08T01:22:14;4.03;;;1.70;;
56239;SDS011;42154;51.992;5.896;2023-07-08T01:24:34;2.05;;;1.65;;
56239;SDS011;42154;51.992;5.896;2023-07-08T01:27:04;4.65;;;1.75;;
56239;SDS011;42154;51.992;5.896;2023-07-08T01:29:33;1.92;;;1.60;;
56239;SDS011;42154;51.992;5.896;2023-07-08T01:31:59;3.90;;;1.73;;
56239;SDS011;42154;51.992;5.896;2023-07-08T01:34:31;2.58;;;1.70;;
56239;SDS011;42154;51.992;5.896;2023-07-08T01:36:58;4.93;;;1.58;;
56239;SDS011;42154;51.992;5.896;2023-07-08T01:39:26;2.42;;;1.65;;
56239;SDS011;42154;51.992;5.896;2023-07-08T01:41:55;2.75;;;1.75;;
56239;SDS011;42154;51.992;5.896;2023-07-08T01:44:28;3.67;;;1.60;;
56239;SDS011;42154;51.992;5.896;2023-07-08T01:46:57;3.10;;;1.70;;
56239;SDS011;42154;51.992;5.896;2023-07-08T01:49:37;5.18;;;1.83;;
56239;SDS011;42154;51.992;5.896;2023-07-08T01:52:05;2.28;;;1.77;;
56239;SDS011;42154;51.992;5.896;2023-07-08T01:54:32;3.53;;;1.60;;
56239;SDS011;42154;51.992;5.896;2023-07-08T01:56:58;3.97;;;1.90;;
56239;SDS011;42154;51.992;5.896;2023-07-08T01:59:24;3.15;;;2.25;;
56239;SDS011;42154;51.992;5.896;2023-07-08T02:01:50;3.53;;;1.55;;
56239;SDS011;42154;51.992;5.896;2023-07-08T02:04:20;4.70;;;1.60;;
56239;SDS011;42154;51.992;5.896;2023-07-08T02:06:57;3.80;;;2.08;;
56239;SDS011;42154;51.992;5.896;2023-07-08T02:09:24;1.60;;;1.50;;
56239;SDS011;42154;51.992;5.896;2023-07-08T02:11:52;2.83;;;1.48;;
56239;SDS011;42154;51.992;5.896;2023-07-08T02:14:18;3.30;;;1.55;;
56239;SDS011;42154;51.992;5.896;2023-07-08T02:16:44;3.50;;;2.25;;
56239;SDS011;42154;51.992;5.896;2023-07-08T02:19:10;2.28;;;1.50;;
56239;SDS011;42154;51.992;5.896;2023-07-08T02:21:37;1.92;;;1.67;;
56239;SDS011;42154;51.992;5.896;2023-07-08T02:24:03;2.67;;;1.98;;
56239;SDS011;42154;51.992;5.896;2023-07-08T02:26:29;4.90;;;2.00;;
56239;SDS011;42154;51.992;5.896;2023-07-08T02:28:58;2.08;;;1.75;;
56239;SDS011;42154;51.992;5.896;2023-07-08T02:31:24;3.05;;;2.03;;
56239;SDS011;42154;51.992;5.896;2023-07-08T02:33:51;2.85;;;1.55;;
56239;SDS011;42154;51.992;5.896;2023-07-08T02:36:17;3.22;;;1.65;;
56239;SDS011;42154;51.992;5.896;2023-07-08T02:38:44;1.85;;;1.60;;
56239;SDS011;42154;51.992;5.896;2023-07-08T02:41:10;1.92;;;1.33;;
56239;SDS011;42154;51.992;5.896;2023-07-08T02:43:37;2.25;;;1.70;;
56239;SDS011;42154;51.992;5.896;2023-07-08T02:46:04;2.88;;;1.63;;
56239;SDS011;42154;51.992;5.896;2023-07-08T02:48:30;2.40;;;1.80;;
56239;SDS011;42154;51.992;5.896;2023-07-08T02:50:59;3.35;;;1.70;;
56239;SDS011;42154;51.992;5.896;2023-07-08T02:53:26;2.38;;;1.52;;
56239;SDS011;42154;51.992;5.896;2023-07-08T02:55:51;3.03;;;2.20;;
56239;SDS011;42154;51.992;5.896;2023-07-08T02:58:17;2.40;;;1.50;;
56239;SDS011;42154;51.992;5.896;2023-07-08T03:00:43;1.83;;;1.27;;
56239;SDS011;42154;51.992;5.896;2023-07-08T03:03:08;4.57;;;1.73;;
56239;SDS011;42154;51.992;5.896;2023-07-08T03:05:34;5.80;;;1.95;;
56239;SDS011;42154;51.992;5.896;2023-07-08T03:08:01;3.15;;;1.88;;
56239;SDS011;42154;51.992;5.896;2023-07-08T03:10:27;4.57;;;2.10;;
56239;SDS011;42154;51.992;5.896;2023-07-08T03:12:52;3.28;;;1.75;;
56239;SDS011;42154;51.992;5.896;2023-07-08T03:15:19;2.15;;;1.70;;
56239;SDS011;42154;51.992;5.896;2023-07-08T03:17:45;3.00;;;1.90;;
56239;SDS011;42154;51.992;5.896;2023-07-08T03:20:11;4.72;;;2.10;;
56239;SDS011;42154;51.992;5.896;2023-07-08T03:22:37;3.00;;;1.67;;
56239;SDS011;42154;51.992;5.896;2023-07-08T03:25:03;2.72;;;1.70;;
56239;SDS011;42154;51.992;5.896;2023-07-08T03:27:29;2.20;;;1.58;;
56239;SDS011;42154;51.992;5.896;2023-07-08T03:29:55;3.20;;;1.70;;
56239;SDS011;42154;51.992;5.896;2023-07-08T03:32:21;2.72;;;1.70;;
56239;SDS011;42154;51.992;5.896;2023-07-08T03:34:47;2.92;;;1.85;;
56239;SDS011;42154;51.992;5.896;2023-07-08T03:37:13;4.18;;;1.75;;
56239;SDS011;42154;51.992;5.896;2023-07-08T03:39:38;3.40;;;1.77;;
56239;SDS011;42154;51.992;5.896;2023-07-08T03:42:04;2.63;;;2.00;;
56239;SDS011;42154;51.992;5.896;2023-07-08T03:44:30;3.63;;;2.17;;
56239;SDS011;42154;51.992;5.896;2023-07-08T03:46:56;3.35;;;1.70;;
56239;SDS011;42154;51.992;5.896;2023-07-08T03:49:22;5.05;;;2.05;;
56239;SDS011;42154;51.992;5.896;2023-07-08T03:51:51;2.75;;;1.92;;
56239;SDS011;42154;51.992;5.896;2023-07-08T03:54:19;5.07;;;2.05;;
56239;SDS011;42154;51.992;5.896;2023-07-08T03:56:46;6.05;;;1.88;;
56239;SDS011;42154;51.992;5.896;2023-07-08T03:59:13;3.92;;;1.63;;
56239;SDS011;42154;51.992;5.896;2023-07-08T04:01:39;4.35;;;1.70;;
56239;SDS011;42154;51.992;5.896;2023-07-08T04:04:08;2.85;;;1.65;;
56239;SDS011;42154;51.992;5.896;2023-07-08T04:06:37;2.72;;;1.70;;
56239;SDS011;42154;51.992;5.896;2023-07-08T04:09:03;3.70;;;1.98;;
56239;SDS011;42154;51.992;5.896;2023-07-08T04:11:29;2.05;;;1.58;;
56239;SDS011;42154;51.992;5.896;2023-07-08T04:13:54;3.78;;;2.00;;
56239;SDS011;42154;51.992;5.896;2023-07-08T04:18:54;2.63;;;1.75;;
56239;SDS011;42154;51.992;5.896;2023-07-08T04:21:21;2.63;;;1.75;;
56239;SDS011;42154;51.992;5.896;2023-07-08T04:23:48;3.03;;;2.03;;
56239;SDS011;42154;51.992;5.896;2023-07-08T04:26:14;2.60;;;1.90;;
56239;SDS011;42154;51.992;5.896;2023-07-08T04:28:41;2.30;;;1.60;;
56239;SDS011;42154;51.992;5.896;2023-07-08T04:31:07;4.10;;;2.05;;
56239;SDS011;42154;51.992;5.896;2023-07-08T04:33:32;3.13;;;1.60;;
56239;SDS011;42154;51.992;5.896;2023-07-08T04:35:58;2.40;;;1.55;;
56239;SDS011;42154;51.992;5.896;2023-07-08T04:38:25;3.30;;;1.77;;
56239;SDS011;42154;51.992;5.896;2023-07-08T04:40:51;2.58;;;1.48;;
56239;SDS011;42154;51.992;5.896;2023-07-08T04:43:19;3.47;;;2.00;;
56239;SDS011;42154;51.992;5.896;2023-07-08T04:45:47;3.95;;;1.90;;
56239;SDS011;42154;51.992;5.896;2023-07-08T04:48:15;2.58;;;1.77;;
56239;SDS011;42154;51.992;5.896;2023-07-08T04:50:45;3.28;;;1.55;;
56239;SDS011;42154;51.992;5.896;2023-07-08T04:53:12;2.42;;;1.55;;
56239;SDS011;42154;51.992;5.896;2023-07-08T04:55:39;3.35;;;1.75;;
56239;SDS011;42154;51.992;5.896;2023-07-08T04:58:08;3.13;;;2.00;;
56239;SDS011;42154;51.992;5.896;2023-07-08T05:00:34;3.85;;;1.67;;
56239;SDS011;42154;51.992;5.896;2023-07-08T05:03:00;3.92;;;2.22;;
56239;SDS011;42154;51.992;5.896;2023-07-08T05:05:26;1.90;;;1.50;;
56239;SDS011;42154;51.992;5.896;2023-07-08T05:07:52;3.10;;;1.52;;
56239;SDS011;42154;51.992;5.896;2023-07-08T05:10:18;2.25;;;1.38;;
56239;SDS011;42154;51.992;5.896;2023-07-08T05:12:44;2.30;;;1.65;;
56239;SDS011;42154;51.992;5.896;2023-07-08T05:15:11;5.85;;;1.80;;
56239;SDS011;42154;51.992;5.896;2023-07-08T05:17:38;3.20;;;1.65;;
56239;SDS011;42154;51.992;5.896;2023-07-08T05:20:05;5.35;;;1.90;;
56239;SDS011;42154;51.992;5.896;2023-07-08T05:22:33;3.88;;;2.05;;
56239;SDS011;42154;51.992;5.896;2023-07-08T05:24:59;2.13;;;1.40;;
56239;SDS011;42154;51.992;5.896;2023-07-08T05:27:25;3.70;;;1.30;;
56239;SDS011;42154;51.992;5.896;2023-07-08T05:29:51;3.00;;;1.90;;
56239;SDS011;42154;51.992;5.896;2023-07-08T05:32:17;3.85;;;1.58;;
56239;SDS011;42154;51.992;5.896;2023-07-08T05:34:43;2.92;;;1.50;;
56239;SDS011;42154;51.992;5.896;2023-07-08T05:37:09;3.35;;;1.80;;
56239;SDS011;42154;51.992;5.896;2023-07-08T05:39:36;1.48;;;1.38;;
56239;SDS011;42154;51.992;5.896;2023-07-08T05:42:02;2.55;;;1.63;;
56239;SDS011;42154;51.992;5.896;2023-07-08T05:44:28;10.15;;;2.05;;
56239;SDS011;42154;51.992;5.896;2023-07-08T05:46:54;2.38;;;1.67;;
56239;SDS011;42154;51.992;5.896;2023-07-08T05:49:19;2.47;;;1.60;;
56239;SDS011;42154;51.992;5.896;2023-07-08T05:51:45;1.83;;;1.42;;
56239;SDS011;42154;51.992;5.896;2023-07-08T05:54:11;2.55;;;1.83;;
56239;SDS011;42154;51.992;5.896;2023-07-08T05:56:37;1.98;;;1.30;;
56239;SDS011;42154;51.992;5.896;2023-07-08T05:59:03;3.42;;;1.80;;
56239;SDS011;42154;51.992;5.896;2023-07-08T06:01:29;4.50;;;1.52;;
56239;SDS011;42154;51.992;5.896;2023-07-08T06:03:56;3.55;;;1.80;;
56239;SDS011;42154;51.992;5.896;2023-07-08T06:06:23;3.92;;;1.98;;
56239;SDS011;42154;51.992;5.896;2023-07-08T06:08:49;4.22;;;2.13;;
56239;SDS011;42154;51.992;5.896;2023-07-08T06:11:15;3.08;;;1.60;;
56239;SDS011;42154;51.992;5.896;2023-07-08T06:13:41;2.85;;;1.45;;
56239;SDS011;42154;51.992;5.896;2023-07-08T06:16:07;3.13;;;1.33;;
56239;SDS011;42154;51.992;5.896;2023-07-08T06:18:33;3.85;;;1.33;;
56239;SDS011;42154;51.992;5.896;2023-07-08T06:20:59;2.72;;;1.90;;
56239;SDS011;42154;51.992;5.896;2023-07-08T06:23:25;4.53;;;1.90;;
56239;SDS011;42154;51.992;5.896;2023-07-08T06:25:51;3.67;;;1.80;;
56239;SDS011;42154;51.992;5.896;2023-07-08T06:28:16;2.97;;;1.65;;
56239;SDS011;42154;51.992;5.896;2023-07-08T06:30:43;2.80;;;1.90;;
56239;SDS011;42154;51.992;5.896;2023-07-08T06:33:09;4.32;;;1.90;;
56239;SDS011;42154;51.992;5.896;2023-07-08T06:35:36;2.47;;;2.10;;
56239;SDS011;42154;51.992;5.896;2023-07-08T06:38:03;2.40;;;1.90;;
56239;SDS011;42154;51.992;5.896;2023-07-08T06:40:29;2.22;;;1.67;;
56239;SDS011;42154;51.992;5.896;2023-07-08T06:42:55;2.35;;;1.60;;
56239;SDS011;42154;51.992;5.896;2023-07-08T06:45:31;4.28;;;2.20;;
56239;SDS011;42154;51.992;5.896;2023-07-08T06:47:56;1.85;;;1.45;;
56239;SDS011;42154;51.992;5.896;2023-07-08T06:50:22;2.13;;;1.73;;
56239;SDS011;42154;51.992;5.896;2023-07-08T06:52:48;2.95;;;1.98;;
56239;SDS011;42154;51.992;5.896;2023-07-08T06:55:13;3.70;;;2.22;;
56239;SDS011;42154;51.992;5.896;2023-07-08T06:57:39;2.40;;;2.03;;
56239;SDS011;42154;51.992;5.896;2023-07-08T07:00:06;3.33;;;1.98;;
56239;SDS011;42154;51.992;5.896;2023-07-08T07:02:32;2.83;;;1.90;;
56239;SDS011;42154;51.992;5.896;2023-07-08T07:04:59;3.28;;;1.90;;
56239;SDS011;42154;51.992;5.896;2023-07-08T07:07:25;4.30;;;2.10;;
56239;SDS011;42154;51.992;5.896;2023-07-08T07:09:51;4.32;;;2.30;;
56239;SDS011;42154;51.992;5.896;2023-07-08T07:12:18;5.13;;;2.20;;
56239;SDS011;42154;51.992;5.896;2023-07-08T07:14:44;4.20;;;1.80;;
56239;SDS011;42154;51.992;5.896;2023-07-08T07:17:10;2.65;;;1.73;;
56239;SDS011;42154;51.992;5.896;2023-07-08T07:19:35;3.33;;;1.77;;
56239;SDS011;42154;51.992;5.896;2023-07-08T07:22:01;2.20;;;1.70;;
56239;SDS011;42154;51.992;5.896;2023-07-08T07:24:27;2.63;;;2.00;;
56239;SDS011;42154;51.992;5.896;2023-07-08T07:26:54;2.33;;;1.50;;
56239;SDS011;42154;51.992;5.896;2023-07-08T07:29:21;2.40;;;1.80;;
56239;SDS011;42154;51.992;5.896;2023-07-08T07:31:47;3.25;;;1.80;;
56239;SDS011;42154;51.992;5.896;2023-07-08T07:34:13;3.22;;;1.52;;
56239;SDS011;42154;51.992;5.896;2023-07-08T07:36:39;3.83;;;2.25;;
56239;SDS011;42154;51.992;5.896;2023-07-08T07:39:05;2.70;;;1.90;;
56239;SDS011;42154;51.992;5.896;2023-07-08T07:41:31;2.72;;;2.03;;
56239;SDS011;42154;51.992;5.896;2023-07-08T07:43:57;2.70;;;2.03;;
56239;SDS011;42154;51.992;5.896;2023-07-08T07:46:22;3.75;;;1.80;;
56239;SDS011;42154;51.992;5.896;2023-07-08T07:48:48;5.10;;;2.33;;
56239;SDS011;42154;51.992;5.896;2023-07-08T07:51:14;2.47;;;2.00;;
56239;SDS011;42154;51.992;5.896;2023-07-08T07:53:40;3.72;;;2.17;;
56239;SDS011;42154;51.992;5.896;2023-07-08T07:56:06;3.38;;;1.75;;
56239;SDS011;42154;51.992;5.896;2023-07-08T07:58:32;2.47;;;2.00;;
56239;SDS011;42154;51.992;5.896;2023-07-08T08:00:58;2.05;;;1.55;;
56239;SDS011;42154;51.992;5.896;2023-07-08T08:03:24;4.03;;;2.03;;
56239;SDS011;42154;51.992;5.896;2023-07-08T08:05:50;3.83;;;2.30;;
56239;SDS011;42154;51.992;5.896;2023-07-08T08:08:16;3.55;;;2.40;;
56239;SDS011;42154;51.992;5.896;2023-07-08T08:10:42;5.22;;;2.30;;
56239;SDS011;42154;51.992;5.896;2023-07-08T08:13:08;3.95;;;2.00;;
56239;SDS011;42154;51.992;5.896;2023-07-08T08:15:35;4.82;;;2.40;;
56239;SDS011;42154;51.992;5.896;2023-07-08T08:18:01;3.05;;;2.42;;
56239;SDS011;42154;51.992;5.896;2023-07-08T08:20:27;3.25;;;2.28;;
56239;SDS011;42154;51.992;5.896;2023-07-08T08:22:53;3.13;;;2.60;;
56239;SDS011;42154;51.992;5.896;2023-07-08T08:25:20;2.53;;;2.10;;
56239;SDS011;42154;51.992;5.896;2023-07-08T08:27:48;4.90;;;2.90;;
56239;SDS011;42154;51.992;5.896;2023-07-08T08:30:14;3.05;;;2.30;;
56239;SDS011;42154;51.992;5.896;2023-07-08T08:32:40;3.53;;;2.15;;
56239;SDS011;42154;51.992;5.896;2023-07-08T08:35:06;2.83;;;2.40;;
56239;SDS011;42154;51.992;5.896;2023-07-08T08:37:32;3.03;;;2.15;;
56239;SDS011;42154;51.992;5.896;2023-07-08T08:39:57;5.78;;;2.35;;
56239;SDS011;42154;51.992;5.896;2023-07-08T08:42:34;3.17;;;2.50;;
56239;SDS011;42154;51.992;5.896;2023-07-08T08:45:05;4.75;;;2.60;;
56239;SDS011;42154;51.992;5.896;2023-07-08T08:47:35;3.83;;;2.30;;
56239;SDS011;42154;51.992;5.896;2023-07-08T08:52:43;3.45;;;2.88;;
56239;SDS011;42154;51.992;5.896;2023-07-08T08:55:12;3.63;;;2.25;;
56239;SDS011;42154;51.992;5.896;2023-07-08T09:06:11;5.63;;;2.70;;
56239;SDS011;42154;51.992;5.896;2023-07-08T09:11:37;3.83;;;2.60;;
56239;SDS011;42154;51.992;5.896;2023-07-08T09:14:40;4.18;;;2.40;;
56239;SDS011;42154;51.992;5.896;2023-07-08T09:19:52;4.88;;;2.60;;
56239;SDS011;42154;51.992;5.896;2023-07-08T09:27:48;7.60;;;3.08;;
56239;SDS011;42154;51.992;5.896;2023-07-08T09:30:18;4.93;;;3.05;;
56239;SDS011;42154;51.992;5.896;2023-07-08T09:32:48;4.10;;;2.72;;
56239;SDS011;42154;51.992;5.896;2023-07-08T09:35:25;3.47;;;2.63;;
56239;SDS011;42154;51.992;5.896;2023-07-08T09:37:53;3.78;;;3.15;;
56239;SDS011;42154;51.992;5.896;2023-07-08T09:40:21;4.07;;;2.83;;
56239;SDS011;42154;51.992;5.896;2023-07-08T09:42:55;6.00;;;3.35;;
56239;SDS011;42154;51.992;5.896;2023-07-08T09:45:27;2.88;;;2.50;;
56239;SDS011;42154;51.992;5.896;2023-07-08T09:47:54;4.05;;;3.00;;
56239;SDS011;42154;51.992;5.896;2023-07-08T09:50:26;4.40;;;3.00;;
56239;SDS011;42154;51.992;5.896;2023-07-08T09:52:54;4.85;;;2.92;;
56239;SDS011;42154;51.992;5.896;2023-07-08T09:55:26;3.42;;;2.53;;
56239;SDS011;42154;51.992;5.896;2023-07-08T09:57:54;3.90;;;2.97;;
56239;SDS011;42154;51.992;5.896;2023-07-08T10:00:33;3.47;;;2.50;;
56239;SDS011;42154;51.992;5.896;2023-07-08T10:03:05;3.25;;;2.83;;
56239;SDS011;42154;51.992;5.896;2023-07-08T10:05:43;4.63;;;3.35;;
56239;SDS011;42154;51.992;5.896;2023-07-08T10:08:15;5.35;;;3.38;;
56239;SDS011;42154;51.992;5.896;2023-07-08T10:10:43;4.00;;;3.25;;
56239;SDS011;42154;51.992;5.896;2023-07-08T10:13:17;4.47;;;3.40;;
56239;SDS011;42154;51.992;5.896;2023-07-08T10:15:51;3.72;;;3.00;;
56239;SDS011;42154;51.992;5.896;2023-07-08T10:18:24;6.53;;;3.30;;
56239;SDS011;42154;51.992;5.896;2023-07-08T10:21:18;4.10;;;3.15;;
56239;SDS011;42154;51.992;5.896;2023-07-08T10:24:06;5.03;;;3.35;;
56239;SDS011;42154;51.992;5.896;2023-07-08T10:26:57;4.75;;;3.65;;
56239;SDS011;42154;51.992;5.896;2023-07-08T10:32:48;4.45;;;3.90;;
56239;SDS011;42154;51.992;5.896;2023-07-08T10:35:33;6.55;;;4.00;;
56239;SDS011;42154;51.992;5.896;2023-07-08T10:38:23;4.93;;;3.80;;
56239;SDS011;42154;51.992;5.896;2023-07-08T10:41:01;4.00;;;3.20;;
56239;SDS011;42154;51.992;5.896;2023-07-08T10:46:38;4.93;;;3.40;;
56239;SDS011;42154;51.992;5.896;2023-07-08T10:49:23;4.28;;;3.55;;
56239;SDS011;42154;51.992;5.896;2023-07-08T11:05:41;6.93;;;3.70;;
56239;SDS011;42154;51.992;5.896;2023-07-08T11:08:16;4.78;;;3.33;;
56239;SDS011;42154;51.992;5.896;2023-07-08T11:10:51;4.65;;;3.40;;
56239;SDS011;42154;51.992;5.896;2023-07-08T11:13:24;4.88;;;3.60;;
56239;SDS011;42154;51.992;5.896;2023-07-08T11:15:56;7.47;;;3.67;;
56239;SDS011;42154;51.992;5.896;2023-07-08T11:19:11;4.18;;;3.47;;
56239;SDS011;42154;51.992;5.896;2023-07-08T11:21:31;4.63;;;3.78;;
56239;SDS011;42154;51.992;5.896;2023-07-08T11:24:05;5.10;;;3.35;;
56239;SDS011;42154;51.992;5.896;2023-07-08T11:26:53;6.68;;;3.50;;
56239;SDS011;42154;51.992;5.896;2023-07-08T11:32:05;3.80;;;3.30;;
56239;SDS011;42154;51.992;5.896;2023-07-08T11:34:36;4.63;;;3.25;;
56239;SDS011;42154;51.992;5.896;2023-07-08T11:37:03;4.55;;;3.33;;
56239;SDS011;42154;51.992;5.896;2023-07-08T11:45:23;6.22;;;4.50;;
56239;SDS011;42154;51.992;5.896;2023-07-08T11:47:51;6.53;;;4.63;;
56239;SDS011;42154;51.992;5.896;2023-07-08T11:50:30;4.68;;;3.63;;
56239;SDS011;42154;51.992;5.896;2023-07-08T11:53:02;4.80;;;3.60;;
56239;SDS011;42154;51.992;5.896;2023-07-08T11:55:38;5.05;;;3.78;;
56239;SDS011;42154;51.992;5.896;2023-07-08T11:58:25;4.45;;;3.53;;
56239;SDS011;42154;51.992;5.896;2023-07-08T12:03:38;7.22;;;4.22;;
56239;SDS011;42154;51.992;5.896;2023-07-08T12:08:53;5.28;;;3.42;;
56239;SDS011;42154;51.992;5.896;2023-07-08T12:11:24;8.45;;;4.10;;
56239;SDS011;42154;51.992;5.896;2023-07-08T12:13:57;4.65;;;3.80;;
56239;SDS011;42154;51.992;5.896;2023-07-08T12:16:25;4.40;;;3.00;;
56239;SDS011;42154;51.992;5.896;2023-07-08T12:18:52;6.15;;;3.80;;
56239;SDS011;42154;51.992;5.896;2023-07-08T12:21:21;6.18;;;4.10;;
56239;SDS011;42154;51.992;5.896;2023-07-08T12:23:48;6.60;;;4.55;;
56239;SDS011;42154;51.992;5.896;2023-07-08T12:26:14;4.13;;;3.53;;
56239;SDS011;42154;51.992;5.896;2023-07-08T12:28:41;8.73;;;4.13;;
56239;SDS011;42154;51.992;5.896;2023-07-08T12:31:18;8.95;;;4.68;;
56239;SDS011;42154;51.992;5.896;2023-07-08T12:33:45;6.63;;;4.00;;
56239;SDS011;42154;51.992;5.896;2023-07-08T12:36:15;7.22;;;3.80;;
56239;SDS011;42154;51.992;5.896;2023-07-08T12:38:53;5.43;;;3.85;;
56239;SDS011;42154;51.992;5.896;2023-07-08T12:41:27;4.88;;;3.75;;
56239;SDS011;42154;51.992;5.896;2023-07-08T12:43:55;6.30;;;4.38;;
56239;SDS011;42154;51.992;5.896;2023-07-08T12:46:22;4.00;;;3.45;;
56239;SDS011;42154;51.992;5.896;2023-07-08T12:48:48;5.38;;;3.40;;
56239;SDS011;42154;51.992;5.896;2023-07-08T12:51:16;4.13;;;3.67;;
56239;SDS011;42154;51.992;5.896;2023-07-08T12:53:50;7.05;;;3.78;;
56239;SDS011;42154;51.992;5.896;2023-07-08T12:56:17;5.10;;;4.10;;
56239;SDS011;42154;51.992;5.896;2023-07-08T12:58:48;5.32;;;3.65;;
56239;SDS011;42154;51.992;5.896;2023-07-08T13:01:19;5.70;;;3.70;;
56239;SDS011;42154;51.992;5.896;2023-07-08T13:03:52;5.03;;;3.80;;
56239;SDS011;42154;51.992;5.896;2023-07-08T13:06:22;4.45;;;3.92;;
56239;SDS011;42154;51.992;5.896;2023-07-08T13:08:51;5.22;;;3.78;;
56239;SDS011;42154;51.992;5.896;2023-07-08T13:11:18;7.60;;;4.10;;
56239;SDS011;42154;51.992;5.896;2023-07-08T13:14:05;7.85;;;4.78;;
56239;SDS011;42154;51.992;5.896;2023-07-08T13:16:32;5.80;;;3.95;;
56239;SDS011;42154;51.992;5.896;2023-07-08T13:19:00;5.93;;;3.47;;
56239;SDS011;42154;51.992;5.896;2023-07-08T13:21:27;7.10;;;4.65;;
56239;SDS011;42154;51.992;5.896;2023-07-08T13:23:55;5.00;;;4.13;;
56239;SDS011;42154;51.992;5.896;2023-07-08T13:26:23;6.68;;;4.72;;
56239;SDS011;42154;51.992;5.896;2023-07-08T13:28:59;4.82;;;4.13;;
56239;SDS011;42154;51.992;5.896;2023-07-08T13:31:31;8.82;;;4.07;;
56239;SDS011;42154;51.992;5.896;2023-07-08T13:34:02;4.93;;;3.55;;
56239;SDS011;42154;51.992;5.896;2023-07-08T13:36:33;5.53;;;3.42;;
56239;SDS011;42154;51.992;5.896;2023-07-08T13:39:07;6.75;;;3.92;;
56239;SDS011;42154;51.992;5.896;2023-07-08T13:41:41;5.70;;;3.97;;
56239;SDS011;42154;51.992;5.896;2023-07-08T13:44:09;4.70;;;3.75;;
56239;SDS011;42154;51.992;5.896;2023-07-08T13:46:39;5.45;;;3.97;;
56239;SDS011;42154;51.992;5.896;2023-07-08T13:49:14;6.63;;;4.00;;
56239;SDS011;42154;51.992;5.896;2023-07-08T13:51:40;6.03;;;4.50;;
56239;SDS011;42154;51.992;5.896;2023-07-08T13:54:23;7.70;;;4.60;;
56239;SDS011;42154;51.992;5.896;2023-07-08T13:56:52;5.50;;;3.72;;
56239;SDS011;42154;51.992;5.896;2023-07-08T13:59:21;4.60;;;3.50;;
56239;SDS011;42154;51.992;5.896;2023-07-08T14:01:49;5.22;;;3.85;;
56239;SDS011;42154;51.992;5.896;2023-07-08T14:04:20;6.05;;;3.78;;
56239;SDS011;42154;51.992;5.896;2023-07-08T14:06:49;4.95;;;3.60;;
56239;SDS011;42154;51.992;5.896;2023-07-08T14:09:16;6.40;;;4.40;;
56239;SDS011;42154;51.992;5.896;2023-07-08T14:11:46;5.90;;;4.57;;
56239;SDS011;42154;51.992;5.896;2023-07-08T14:14:13;5.53;;;4.30;;
56239;SDS011;42154;51.992;5.896;2023-07-08T14:16:40;5.28;;;4.10;;
56239;SDS011;42154;51.992;5.896;2023-07-08T14:19:27;5.32;;;4.30;;
56239;SDS011;42154;51.992;5.896;2023-07-08T14:21:56;5.30;;;4.32;;
56239;SDS011;42154;51.992;5.896;2023-07-08T14:24:23;7.35;;;4.18;;
56239;SDS011;42154;51.992;5.896;2023-07-08T14:26:50;6.60;;;4.18;;
56239;SDS011;42154;51.992;5.896;2023-07-08T14:29:17;4.90;;;4.40;;
56239;SDS011;42154;51.992;5.896;2023-07-08T14:31:42;4.15;;;3.75;;
56239;SDS011;42154;51.992;5.896;2023-07-08T14:34:09;5.32;;;4.13;;
56239;SDS011;42154;51.992;5.896;2023-07-08T14:36:38;6.18;;;4.00;;
56239;SDS011;42154;51.992;5.896;2023-07-08T14:39:14;6.65;;;4.15;;
56239;SDS011;42154;51.992;5.896;2023-07-08T14:41:41;5.55;;;3.90;;
56239;SDS011;42154;51.992;5.896;2023-07-08T14:44:29;5.85;;;3.83;;
56239;SDS011;42154;51.992;5.896;2023-07-08T14:46:58;4.38;;;3.67;;
56239;SDS011;42154;51.992;5.896;2023-07-08T14:49:24;4.85;;;3.58;;
56239;SDS011;42154;51.992;5.896;2023-07-08T14:51:51;4.82;;;3.63;;
56239;SDS011;42154;51.992;5.896;2023-07-08T14:54:17;6.97;;;4.55;;
56239;SDS011;42154;51.992;5.896;2023-07-08T14:56:44;5.65;;;4.30;;
56239;SDS011;42154;51.992;5.896;2023-07-08T14:59:21;5.95;;;3.88;;
56239;SDS011;42154;51.992;5.896;2023-07-08T15:01:51;5.60;;;4.35;;
56239;SDS011;42154;51.992;5.896;2023-07-08T15:04:19;5.05;;;4.00;;
56239;SDS011;42154;51.992;5.896;2023-07-08T15:06:45;6.28;;;4.28;;
56239;SDS011;42154;51.992;5.896;2023-07-08T15:09:11;6.45;;;4.30;;
56239;SDS011;42154;51.992;5.896;2023-07-08T15:11:39;6.40;;;3.85;;
56239;SDS011;42154;51.992;5.896;2023-07-08T15:14:21;5.85;;;3.60;;
56239;SDS011;42154;51.992;5.896;2023-07-08T15:16:48;7.35;;;3.90;;
56239;SDS011;42154;51.992;5.896;2023-07-08T15:19:15;5.43;;;3.92;;
56239;SDS011;42154;51.992;5.896;2023-07-08T15:21:41;4.22;;;3.30;;
56239;SDS011;42154;51.992;5.896;2023-07-08T15:24:09;4.55;;;3.08;;
56239;SDS011;42154;51.992;5.896;2023-07-08T15:26:37;4.38;;;3.35;;
56239;SDS011;42154;51.992;5.896;2023-07-08T15:29:04;4.20;;;3.38;;
56239;SDS011;42154;51.992;5.896;2023-07-08T15:31:32;5.50;;;3.25;;
56239;SDS011;42154;51.992;5.896;2023-07-08T15:33:59;6.47;;;3.85;;
56239;SDS011;42154;51.992;5.896;2023-07-08T15:36:25;4.45;;;3.55;;
56239;SDS011;42154;51.992;5.896;2023-07-08T15:38:51;4.90;;;3.30;;
56239;SDS011;42154;51.992;5.896;2023-07-08T15:43:47;5.32;;;3.45;;
56239;SDS011;42154;51.992;5.896;2023-07-08T15:46:14;4.75;;;3.20;;
56239;SDS011;42154;51.992;5.896;2023-07-08T15:48:41;6.30;;;3.50;;
56239;SDS011;42154;51.992;5.896;2023-07-08T15:51:07;4.72;;;3.03;;
56239;SDS011;42154;51.992;5.896;2023-07-08T15:53:38;5.40;;;3.08;;
56239;SDS011;42154;51.992;5.896;2023-07-08T15:56:04;4.18;;;3.05;;
56239;SDS011;42154;51.992;5.896;2023-07-08T15:58:31;4.70;;;3.05;;
56239;SDS011;42154;51.992;5.896;2023-07-08T16:00:59;4.95;;;3.40;;
56239;SDS011;42154;51.992;5.896;2023-07-08T16:03:28;4.53;;;3.38;;
56239;SDS011;42154;51.992;5.896;2023-07-08T16:05:55;5.00;;;3.60;;
56239;SDS011;42154;51.992;5.896;2023-07-08T16:08:22;3.97;;;3.00;;